Time,TemperatureF,DewpointF,PressureIn,WindDirection,WindDirectionDegrees,WindSpeedMPH,WindSpeedGustMPH,Humidity,HourlyPrecipIn,Conditions,Clouds,dailyrainin,SolarRadiationWatts/m^2,SoftwareType,DateUTC
2013-08-03 00:00:00,66.3,47.6,29.69,ESE,112,0.0,3.0,51,0.00,,,-99.99,0,WeatherLink 5.7,2013-08-03 06:00:00,
2013-08-03 00:09:00,66.3,47.6,29.70,ESE,112,0.0,1.0,51,0.00,,,-99.99,0,WeatherLink 5.7,2013-08-03 06:09:00,
2013-08-03 00:15:00,66.3,47.1,29.70,SE,135,0.0,3.0,50,0.00,,,-99.99,0,WeatherLink 5.7,2013-08-03 06:15:00,
2013-08-03 00:24:00,65.8,47.7,29.68,SE,135,0.0,1.0,52,0.00,,,-99.99,0,WeatherLink 5.7,2013-08-03 06:24:00,
2013-08-03 00:35:00,65.0,47.9,29.68,SE,135,0.0,1.0,54,0.00,,,-99.99,0,WeatherLink 5.7,2013-08-03 06:35:00,
2013-08-03 00:44:00,64.7,47.7,29.68,SE,135,0.0,1.0,54,0.00,,,-99.99,0,WeatherLink 5.7,2013-08-03 06:44:00,
2013-08-03 00:55:00,64.4,47.9,29.69,East,90,0.0,2.0,55,0.00,,,-99.99,0,WeatherLink 5.7,2013-08-03 06:55:00,
2013-08-03 01:00:00,63.9,47.9,29.69,North,-999,0.0,0.0,56,0.00,,,-99.99,0,WeatherLink 5.7,2013-08-03 07:00:00,
2013-08-03 01:09:00,62.9,47.9,29.69,East,90,0.0,2.0,58,0.00,,,-99.99,0,WeatherLink 5.7,2013-08-03 07:09:00,
2013-08-03 01:20:00,62.4,47.9,29.68,East,90,0.0,1.0,59,0.00,,,-99.99,0,WeatherLink 5.7,2013-08-03 07:20:00,
2013-08-03 01:29:00,62.4,47.9,29.68,East,90,0.0,1.0,59,0.00,,,-99.99,0,WeatherLink 5.7,2013-08-03 07:29:00,
2013-08-03 01:39:00,62.1,48.0,29.69,North,-999,0.0,0.0,60,0.00,,,-99.99,0,WeatherLink 5.7,2013-08-03 07:39:00,
2013-08-03 01:44:00,62.0,48.0,29.69,East,90,0.0,1.0,60,0.00,,,-99.99,0,WeatherLink 5.7,2013-08-03 07:44:00,
2013-08-03 01:55:00,61.5,48.4,29.69,East,90,0.0,1.0,62,0.00,,,-99.99,0,WeatherLink 5.7,2013-08-03 07:55:00,
2013-08-03 02:00:00,61.3,48.2,29.69,North,-999,0.0,0.0,62,0.00,,,-99.99,0,WeatherLink 5.7,2013-08-03 08:00:00,
2013-08-03 02:05:00,62.9,47.9,29.69,East,90,0.0,2.0,58,0.00,,,-99.99,0,WeatherLink 5.7,2013-08-03 08:05:00,
2013-08-03 02:09:00,61.2,48.5,29.70,North,-999,0.0,0.0,63,0.00,,,-99.99,0,WeatherLink 5.7,2013-08-03 08:09:00,
2013-08-03 02:10:00,62.8,47.8,29.69,East,90,0.0,2.0,58,0.00,,,-99.99,0,WeatherLink 5.7,2013-08-03 08:10:00,
2013-08-03 02:15:00,62.4,47.9,29.68,East,90,0.0,1.0,59,0.00,,,-99.99,0,WeatherLink 5.7,2013-08-03 08:15:00,
2013-08-03 02:19:00,60.7,48.4,29.71,East,90,0.0,2.0,64,0.00,,,-99.99,0,WeatherLink 5.7,2013-08-03 08:19:00,
2013-08-03 02:20:00,62.4,47.9,29.68,East,90,0.0,1.0,59,0.00,,,-99.99,0,WeatherLink 5.7,2013-08-03 08:20:00,
2013-08-03 02:25:00,60.4,48.6,29.71,East,90,0.0,2.0,65,0.00,,,-99.99,0,WeatherLink 5.7,2013-08-03 08:25:00,
2013-08-03 02:30:00,62.3,48.2,29.69,North,-999,0.0,0.0,60,0.00,,,-99.99,0,WeatherLink 5.7,2013-08-03 08:30:00,
2013-08-03 02:34:00,60.6,48.8,29.70,North,-999,0.0,0.0,65,0.00,,,-99.99,0,WeatherLink 5.7,2013-08-03 08:34:00,
2013-08-03 02:35:00,62.1,48.0,29.69,North,-999,0.0,0.0,60,0.00,,,-99.99,0,WeatherLink 5.7,2013-08-03 08:35:00,
2013-08-03 02:39:00,60.6,48.8,29.70,North,-999,0.0,0.0,65,0.00,,,-99.99,0,WeatherLink 5.7,2013-08-03 08:39:00,
2013-08-03 02:40:00,62.0,48.0,29.69,East,90,0.0,1.0,60,0.00,,,-99.99,0,WeatherLink 5.7,2013-08-03 08:40:00,
2013-08-03 02:45:00,61.7,48.5,29.69,East,90,0.0,3.0,62,0.00,,,-99.99,0,WeatherLink 5.7,2013-08-03 08:45:00,
2013-08-03 02:49:00,60.2,48.4,29.71,ESE,112,0.0,2.0,65,0.00,,,-99.99,0,WeatherLink 5.7,2013-08-03 08:49:00,
2013-08-03 02:50:00,61.5,48.4,29.69,East,90,0.0,1.0,62,0.00,,,-99.99,0,WeatherLink 5.7,2013-08-03 08:50:00,
2013-08-03 02:54:00,60.2,48.0,29.71,ESE,112,0.0,1.0,64,0.00,,,-99.99,0,WeatherLink 5.7,2013-08-03 08:54:00,
2013-08-03 02:55:00,61.3,48.2,29.69,North,-999,0.0,0.0,62,0.00,,,-99.99,0,WeatherLink 5.7,2013-08-03 08:55:00,
2013-08-03 03:00:00,60.1,48.3,29.71,ESE,112,0.0,3.0,65,0.00,,,-99.99,0,WeatherLink 5.7,2013-08-03 09:00:00,
2013-08-03 03:05:00,61.2,48.5,29.70,North,-999,0.0,0.0,63,0.00,,,-99.99,0,WeatherLink 5.7,2013-08-03 09:05:00,
2013-08-03 03:10:00,59.8,48.0,29.71,North,-999,0.0,0.0,65,0.00,,,-99.99,0,WeatherLink 5.7,2013-08-03 09:10:00,
2013-08-03 03:15:00,60.7,48.4,29.71,East,90,0.0,2.0,64,0.00,,,-99.99,0,WeatherLink 5.7,2013-08-03 09:15:00,
2013-08-03 03:19:00,59.9,48.1,29.71,North,-999,0.0,0.0,65,0.00,,,-99.99,0,WeatherLink 5.7,2013-08-03 09:19:00,
2013-08-03 03:20:00,60.4,48.6,29.71,East,90,0.0,2.0,65,0.00,,,-99.99,0,WeatherLink 5.7,2013-08-03 09:20:00,
2013-08-03 03:24:00,59.8,48.4,29.71,ESE,112,0.0,3.0,66,0.00,,,-99.99,0,WeatherLink 5.7,2013-08-03 09:24:00,
2013-08-03 03:25:00,60.4,48.6,29.71,North,-999,0.0,0.0,65,0.00,,,-99.99,0,WeatherLink 5.7,2013-08-03 09:25:00,
2013-08-03 03:29:00,59.5,48.5,29.71,ESE,112,0.0,3.0,67,0.00,,,-99.99,0,WeatherLink 5.7,2013-08-03 09:29:00,
2013-08-03 03:30:00,60.6,48.8,29.70,North,-999,0.0,0.0,65,0.00,,,-99.99,0,WeatherLink 5.7,2013-08-03 09:30:00,
2013-08-03 03:35:00,60.6,48.8,29.70,North,-999,0.0,0.0,65,0.00,,,-99.99,0,WeatherLink 5.7,2013-08-03 09:35:00,
2013-08-03 03:39:00,59.0,48.4,29.72,North,-999,0.0,0.0,68,0.00,,,-99.99,0,WeatherLink 5.7,2013-08-03 09:39:00,
2013-08-03 03:40:00,60.2,48.4,29.70,ESE,112,0.0,2.0,65,0.00,,,-99.99,0,WeatherLink 5.7,2013-08-03 09:40:00,
2013-08-03 03:45:00,59.0,48.4,29.72,ESE,112,0.0,1.0,68,0.00,,,-99.99,0,WeatherLink 5.7,2013-08-03 09:45:00,
2013-08-03 03:50:00,60.2,48.0,29.71,ESE,112,0.0,1.0,64,0.00,,,-99.99,0,WeatherLink 5.7,2013-08-03 09:50:00,
2013-08-03 03:54:00,58.9,48.4,29.72,ESE,112,0.0,2.0,68,0.00,,,-99.99,0,WeatherLink 5.7,2013-08-03 09:54:00,
2013-08-03 03:55:00,60.1,48.3,29.71,ESE,112,0.0,3.0,65,0.00,,,-99.99,0,WeatherLink 5.7,2013-08-03 09:55:00,
2013-08-03 04:00:00,58.7,48.6,29.72,ESE,112,0.0,3.0,69,0.00,,,-99.99,0,WeatherLink 5.7,2013-08-03 10:00:00,
2013-08-03 04:05:00,59.8,48.0,29.71,North,-999,0.0,0.0,65,0.00,,,-99.99,0,WeatherLink 5.7,2013-08-03 10:05:00,
2013-08-03 04:09:00,58.3,48.9,29.72,North,-999,0.0,0.0,71,0.00,,,-99.99,0,WeatherLink 5.7,2013-08-03 10:09:00,
2013-08-03 04:10:00,59.9,48.1,29.71,ESE,112,0.0,1.0,65,0.00,,,-99.99,0,WeatherLink 5.7,2013-08-03 10:10:00,
2013-08-03 04:15:00,58.1,48.7,29.72,North,-999,0.0,0.0,71,0.00,,,-99.99,0,WeatherLink 5.7,2013-08-03 10:15:00,
2013-08-03 04:20:00,59.8,48.4,29.71,ESE,112,0.0,3.0,66,0.00,,,-99.99,0,WeatherLink 5.7,2013-08-03 10:20:00,
2013-08-03 04:24:00,58.1,48.7,29.73,East,90,0.0,3.0,71,0.00,,,-99.99,0,WeatherLink 5.7,2013-08-03 10:24:00,
2013-08-03 04:25:00,59.5,48.5,29.71,ESE,112,0.0,3.0,67,0.00,,,-99.99,0,WeatherLink 5.7,2013-08-03 10:25:00,
2013-08-03 04:30:00,59.2,48.6,29.72,ESE,112,0.0,1.0,68,0.00,,,-99.99,0,WeatherLink 5.7,2013-08-03 10:30:00,
2013-08-03 04:34:00,58.0,48.6,29.73,North,-999,0.0,0.0,71,0.00,,,-99.99,0,WeatherLink 5.7,2013-08-03 10:34:00,
2013-08-03 04:35:00,59.0,48.4,29.72,North,-999,0.0,0.0,68,0.00,,,-99.99,0,WeatherLink 5.7,2013-08-03 10:35:00,
2013-08-03 04:39:00,58.0,48.6,29.73,East,90,0.0,2.0,71,0.00,,,-99.99,0,WeatherLink 5.7,2013-08-03 10:39:00,
2013-08-03 04:40:00,59.0,48.4,29.72,ESE,112,0.0,1.0,68,0.00,,,-99.99,0,WeatherLink 5.7,2013-08-03 10:40:00,
2013-08-03 04:45:00,59.0,48.4,29.72,ESE,112,0.0,2.0,68,0.00,,,-99.99,0,WeatherLink 5.7,2013-08-03 10:45:00,
2013-08-03 04:49:00,57.7,49.1,29.74,East,90,1.0,3.0,73,0.00,,,-99.99,0,WeatherLink 5.7,2013-08-03 10:49:00,
2013-08-03 04:50:00,58.9,48.4,29.72,ESE,112,0.0,2.0,68,0.00,,,-99.99,0,WeatherLink 5.7,2013-08-03 10:50:00,
2013-08-03 04:55:00,58.7,48.6,29.72,ESE,112,0.0,3.0,69,0.00,,,-99.99,0,WeatherLink 5.7,2013-08-03 10:55:00,
2013-08-03 05:00:00,57.7,49.1,29.74,East,90,0.0,4.0,73,0.00,,,-99.99,0,WeatherLink 5.7,2013-08-03 11:00:00,
2013-08-03 05:05:00,58.3,48.9,29.72,North,-999,0.0,0.0,71,0.00,,,-99.99,0,WeatherLink 5.7,2013-08-03 11:05:00,
2013-08-03 05:09:00,57.7,49.1,29.75,North,-999,0.0,0.0,73,0.00,,,-99.99,0,WeatherLink 5.7,2013-08-03 11:09:00,
2013-08-03 05:10:00,58.1,48.7,29.72,North,-999,0.0,0.0,71,0.00,,,-99.99,0,WeatherLink 5.7,2013-08-03 11:10:00,
2013-08-03 05:15:00,58.0,49.0,29.73,East,90,0.0,2.0,72,0.00,,,-99.99,0,WeatherLink 5.7,2013-08-03 11:15:00,
2013-08-03 05:19:00,57.5,48.9,29.75,North,-999,0.0,0.0,73,0.00,,,-99.99,0,WeatherLink 5.7,2013-08-03 11:19:00,
2013-08-03 05:20:00,58.1,48.7,29.73,East,90,0.0,3.0,71,0.00,,,-99.99,0,WeatherLink 5.7,2013-08-03 11:20:00,
2013-08-03 05:24:00,57.5,48.9,29.75,East,90,0.0,1.0,73,0.00,,,-99.99,0,WeatherLink 5.7,2013-08-03 11:24:00,
2013-08-03 05:25:00,58.1,48.7,29.73,North,-999,0.0,0.0,71,0.00,,,-99.99,0,WeatherLink 5.7,2013-08-03 11:25:00,
2013-08-03 05:30:00,58.0,48.6,29.73,North,-999,0.0,0.0,71,0.00,,,-99.99,0,WeatherLink 5.7,2013-08-03 11:30:00,
2013-08-03 05:34:00,57.5,48.2,29.75,East,90,0.0,2.0,71,0.00,,,-99.99,0,WeatherLink 5.7,2013-08-03 11:34:00,
2013-08-03 05:35:00,58.0,48.6,29.73,East,90,0.0,2.0,71,0.00,,,-99.99,0,WeatherLink 5.7,2013-08-03 11:35:00,
2013-08-03 05:40:00,57.3,48.0,29.75,North,-999,0.0,0.0,71,0.00,,,-99.99,0,WeatherLink 5.7,2013-08-03 11:40:00,
2013-08-03 05:45:00,57.7,49.1,29.74,East,90,1.0,3.0,73,0.00,,,-99.99,0,WeatherLink 5.7,2013-08-03 11:45:00,
2013-08-03 05:49:00,57.2,48.3,29.78,East,90,0.0,3.0,72,0.00,,,-99.99,0,WeatherLink 5.7,2013-08-03 11:49:00,
2013-08-03 05:50:00,57.7,49.1,29.74,East,90,2.0,5.0,73,0.00,,,-99.99,0,WeatherLink 5.7,2013-08-03 11:50:00,
2013-08-03 05:55:00,57.7,49.1,29.74,East,90,0.0,4.0,73,0.00,,,-99.99,0,WeatherLink 5.7,2013-08-03 11:55:00,
2013-08-03 05:59:00,57.0,48.1,29.78,East,90,1.0,3.0,72,0.00,,,-99.99,0,WeatherLink 5.7,2013-08-03 11:59:00,
2013-08-03 06:00:00,57.7,49.1,29.75,East,90,0.0,4.0,73,0.00,,,-99.99,0,WeatherLink 5.7,2013-08-03 12:00:00,
2013-08-03 06:05:00,57.7,49.1,29.75,North,-999,0.0,0.0,73,0.00,,,-99.99,0,WeatherLink 5.7,2013-08-03 12:05:00,
2013-08-03 06:10:00,56.7,48.1,29.79,East,90,0.0,2.0,73,0.00,,,-99.99,0,WeatherLink 5.7,2013-08-03 12:10:00,
2013-08-03 06:15:00,57.5,48.9,29.75,North,-999,0.0,0.0,73,0.00,,,-99.99,0,WeatherLink 5.7,2013-08-03 12:15:00,
2013-08-03 06:19:00,56.7,48.1,29.79,North,-999,0.0,0.0,73,0.00,,,-99.99,0,WeatherLink 5.7,2013-08-03 12:19:00,
2013-08-03 06:20:00,57.5,48.9,29.75,East,90,0.0,1.0,73,0.00,,,-99.99,0,WeatherLink 5.7,2013-08-03 12:20:00,
2013-08-03 06:25:00,57.5,48.9,29.75,North,-999,0.0,0.0,73,0.00,,,-99.99,0,WeatherLink 5.7,2013-08-03 12:25:00,
2013-08-03 06:29:00,56.6,48.0,29.79,East,90,0.0,2.0,73,0.00,,,-99.99,6,WeatherLink 5.7,2013-08-03 12:29:00,
2013-08-03 06:30:00,57.5,48.2,29.75,East,90,0.0,2.0,71,0.00,,,-99.99,0,WeatherLink 5.7,2013-08-03 12:30:00,
2013-08-03 06:34:00,56.7,48.1,29.81,North,-999,0.0,0.0,73,0.00,,,-99.99,9,WeatherLink 5.7,2013-08-03 12:34:00,
2013-08-03 06:35:00,57.3,48.0,29.75,North,-999,0.0,0.0,71,0.00,,,-99.99,0,WeatherLink 5.7,2013-08-03 12:35:00,
2013-08-03 06:40:00,57.3,48.0,29.75,North,-999,0.0,0.0,71,0.00,,,-99.99,0,WeatherLink 5.7,2013-08-03 12:40:00,
2013-08-03 06:44:00,56.7,48.1,29.81,East,90,0.0,2.0,73,0.00,,,-99.99,9,WeatherLink 5.7,2013-08-03 12:44:00,
2013-08-03 06:45:00,57.2,48.3,29.78,East,90,0.0,3.0,72,0.00,,,-99.99,0,WeatherLink 5.7,2013-08-03 12:45:00,
2013-08-03 06:50:00,57.2,48.3,29.78,East,90,0.0,1.0,72,0.00,,,-99.99,0,WeatherLink 5.7,2013-08-03 12:50:00,
2013-08-03 06:54:00,56.7,48.1,29.81,North,-999,0.0,0.0,73,0.00,,,-99.99,13,WeatherLink 5.7,2013-08-03 12:54:00,
2013-08-03 06:55:00,57.0,48.1,29.78,East,90,1.0,3.0,72,0.00,,,-99.99,0,WeatherLink 5.7,2013-08-03 12:55:00,
2013-08-03 07:00:00,56.7,47.8,29.81,East,90,1.0,3.0,72,0.00,,,-99.99,27,WeatherLink 5.7,2013-08-03 13:00:00,
2013-08-03 07:05:00,56.7,48.1,29.79,East,90,0.0,2.0,73,0.00,,,-99.99,0,WeatherLink 5.7,2013-08-03 13:05:00,
2013-08-03 07:10:00,56.9,48.3,29.81,East,90,0.0,2.0,73,0.00,,,-99.99,64,WeatherLink 5.7,2013-08-03 13:10:00,
2013-08-03 07:15:00,56.7,48.1,29.79,North,-999,0.0,0.0,73,0.00,,,-99.99,0,WeatherLink 5.7,2013-08-03 13:15:00,
2013-08-03 07:19:00,57.3,48.7,29.83,East,90,0.0,3.0,73,0.00,,,-99.99,67,WeatherLink 5.7,2013-08-03 13:19:00,
2013-08-03 07:20:00,56.7,48.1,29.79,East,90,0.0,1.0,73,0.00,,,-99.99,2,WeatherLink 5.7,2013-08-03 13:20:00,
2013-08-03 07:25:00,56.6,48.0,29.79,East,90,0.0,2.0,73,0.00,,,-99.99,6,WeatherLink 5.7,2013-08-03 13:25:00,
2013-08-03 07:30:00,57.8,48.5,29.83,East,90,2.0,5.0,71,0.00,,,-99.99,68,WeatherLink 5.7,2013-08-03 13:30:00,
2013-08-03 07:35:00,56.7,48.1,29.81,East,90,0.0,3.0,73,0.00,,,-99.99,9,WeatherLink 5.7,2013-08-03 13:35:00,
2013-08-03 07:39:00,58.1,48.4,29.83,East,90,1.0,5.0,70,0.00,,,-99.99,66,WeatherLink 5.7,2013-08-03 13:39:00,
2013-08-03 07:40:00,56.7,48.1,29.81,East,90,0.0,2.0,73,0.00,,,-99.99,9,WeatherLink 5.7,2013-08-03 13:40:00,
2013-08-03 07:45:00,56.7,48.5,29.81,North,-999,0.0,0.0,74,0.00,,,-99.99,11,WeatherLink 5.7,2013-08-03 13:45:00,
2013-08-03 07:49:00,58.6,48.8,29.82,East,90,0.0,3.0,70,0.00,,,-99.99,70,WeatherLink 5.7,2013-08-03 13:49:00,
2013-08-03 07:50:00,56.7,48.1,29.81,North,-999,0.0,0.0,73,0.00,,,-99.99,13,WeatherLink 5.7,2013-08-03 13:50:00,
2013-08-03 07:55:00,56.7,47.8,29.81,East,90,1.0,3.0,72,0.00,,,-99.99,27,WeatherLink 5.7,2013-08-03 13:55:00,
2013-08-03 08:00:00,59.0,48.4,29.82,East,90,1.0,3.0,68,0.00,,,-99.99,71,WeatherLink 5.7,2013-08-03 14:00:00,
2013-08-03 08:05:00,56.9,48.3,29.81,East,90,0.0,2.0,73,0.00,,,-99.99,64,WeatherLink 5.7,2013-08-03 14:05:00,
2013-08-03 08:09:00,59.3,48.7,29.82,SE,135,0.0,3.0,68,0.00,,,-99.99,96,WeatherLink 5.7,2013-08-03 14:09:00,
2013-08-03 08:10:00,57.2,48.6,29.81,East,90,0.0,2.0,73,0.00,,,-99.99,69,WeatherLink 5.7,2013-08-03 14:10:00,
2013-08-03 08:15:00,57.3,48.7,29.83,East,90,0.0,3.0,73,0.00,,,-99.99,67,WeatherLink 5.7,2013-08-03 14:15:00,
2013-08-03 08:19:00,60.2,48.8,29.84,SE,135,0.0,6.0,66,0.00,,,-99.99,193,WeatherLink 5.7,2013-08-03 14:19:00,
2013-08-03 08:20:00,57.5,48.5,29.83,East,90,1.0,4.0,72,0.00,,,-99.99,69,WeatherLink 5.7,2013-08-03 14:20:00,
2013-08-03 08:25:00,57.8,48.5,29.83,East,90,2.0,5.0,71,0.00,,,-99.99,68,WeatherLink 5.7,2013-08-03 14:25:00,
2013-08-03 08:30:00,61.5,48.8,29.84,ESE,112,0.0,1.0,63,0.00,,,-99.99,124,WeatherLink 5.7,2013-08-03 14:30:00,
2013-08-03 08:35:00,58.1,48.4,29.83,East,90,1.0,5.0,70,0.00,,,-99.99,66,WeatherLink 5.7,2013-08-03 14:35:00,
2013-08-03 08:39:00,62.1,48.0,29.83,ESE,112,0.0,3.0,60,0.00,,,-99.99,96,WeatherLink 5.7,2013-08-03 14:39:00,
2013-08-03 08:40:00,58.3,48.6,29.83,East,90,1.0,4.0,70,0.00,,,-99.99,66,WeatherLink 5.7,2013-08-03 14:40:00,
2013-08-03 08:45:00,62.3,48.7,29.83,SE,135,0.0,1.0,61,0.00,,,-99.99,102,WeatherLink 5.7,2013-08-03 14:45:00,
2013-08-03 08:50:00,58.9,48.4,29.82,East,90,1.0,3.0,68,0.00,,,-99.99,61,WeatherLink 5.7,2013-08-03 14:50:00,
2013-08-03 08:54:00,62.4,48.3,29.83,North,-999,0.0,0.0,60,0.00,,,-99.99,130,WeatherLink 5.7,2013-08-03 14:54:00,
2013-08-03 08:55:00,59.0,48.4,29.82,East,90,1.0,3.0,68,0.00,,,-99.99,71,WeatherLink 5.7,2013-08-03 14:55:00,
2013-08-03 09:00:00,62.6,48.5,29.83,SE,135,0.0,2.0,60,0.00,,,-99.99,118,WeatherLink 5.7,2013-08-03 15:00:00,
2013-08-03 09:05:00,59.3,48.7,29.82,SE,135,0.0,3.0,68,0.00,,,-99.99,96,WeatherLink 5.7,2013-08-03 15:05:00,
2013-08-03 09:10:00,63.7,49.5,29.83,North,-999,0.0,0.0,60,0.00,,,-99.99,481,WeatherLink 5.7,2013-08-03 15:10:00,
2013-08-03 09:15:00,60.2,48.8,29.84,SE,135,0.0,6.0,66,0.00,,,-99.99,193,WeatherLink 5.7,2013-08-03 15:15:00,
2013-08-03 09:19:00,65.5,48.9,29.82,North,-999,0.0,0.0,55,0.00,,,-99.99,550,WeatherLink 5.7,2013-08-03 15:19:00,
2013-08-03 09:20:00,61.0,48.7,29.84,East,90,1.0,4.0,64,0.00,,,-99.99,157,WeatherLink 5.7,2013-08-03 15:20:00,
2013-08-03 09:25:00,61.5,48.8,29.84,ESE,112,0.0,1.0,63,0.00,,,-99.99,124,WeatherLink 5.7,2013-08-03 15:25:00,
2013-08-03 09:29:00,67.0,48.8,29.82,SE,135,0.0,1.0,52,0.00,,,-99.99,517,WeatherLink 5.7,2013-08-03 15:29:00,
2013-08-03 09:30:00,61.8,48.6,29.83,East,90,0.0,2.0,62,0.00,,,-99.99,104,WeatherLink 5.7,2013-08-03 15:30:00,
2013-08-03 09:34:00,67.6,48.8,29.79,North,-999,0.0,0.0,51,0.00,,,-99.99,515,WeatherLink 5.7,2013-08-03 15:34:00,
2013-08-03 09:35:00,62.1,48.0,29.83,ESE,112,0.0,3.0,60,0.00,,,-99.99,96,WeatherLink 5.7,2013-08-03 15:35:00,
2013-08-03 09:40:00,62.3,48.7,29.83,SE,135,0.0,1.0,61,0.00,,,-99.99,102,WeatherLink 5.7,2013-08-03 15:40:00,
2013-08-03 09:44:00,68.8,49.4,29.79,NW,315,0.0,2.0,50,0.00,,,-99.99,586,WeatherLink 5.7,2013-08-03 15:44:00,
2013-08-03 09:45:00,62.4,48.8,29.83,North,-999,0.0,0.0,61,0.00,,,-99.99,122,WeatherLink 5.7,2013-08-03 15:45:00,
2013-08-03 09:50:00,62.4,48.3,29.83,North,-999,0.0,0.0,60,0.00,,,-99.99,130,WeatherLink 5.7,2013-08-03 15:50:00,
2013-08-03 09:54:00,69.6,48.5,29.79,NNW,337,0.0,1.0,47,0.00,,,-99.99,634,WeatherLink 5.7,2013-08-03 15:54:00,
2013-08-03 09:55:00,62.6,48.5,29.83,SE,135,0.0,2.0,60,0.00,,,-99.99,118,WeatherLink 5.7,2013-08-03 15:55:00,
2013-08-03 10:00:00,70.1,47.8,29.79,NW,315,0.0,1.0,45,0.00,,,-99.99,648,WeatherLink 5.7,2013-08-03 16:00:00,
2013-08-03 10:05:00,63.7,49.5,29.83,North,-999,0.0,0.0,60,0.00,,,-99.99,481,WeatherLink 5.7,2013-08-03 16:05:00,
2013-08-03 10:09:00,71.3,47.6,29.78,NW,315,0.0,2.0,43,0.00,,,-99.99,692,WeatherLink 5.7,2013-08-03 16:09:00,
2013-08-03 10:10:00,64.7,49.1,29.83,North,-999,0.0,0.0,57,0.00,,,-99.99,540,WeatherLink 5.7,2013-08-03 16:10:00,
2013-08-03 10:15:00,65.5,48.9,29.82,North,-999,0.0,0.0,55,0.00,,,-99.99,550,WeatherLink 5.7,2013-08-03 16:15:00,
2013-08-03 10:19:00,72.4,46.7,29.77,North,-999,0.0,0.0,40,0.00,,,-99.99,724,WeatherLink 5.7,2013-08-03 16:19:00,
2013-08-03 10:20:00,66.3,49.2,29.82,North,-999,0.0,0.0,54,0.00,,,-99.99,560,WeatherLink 5.7,2013-08-03 16:20:00,
2013-08-03 10:25:00,67.0,48.8,29.82,SE,135,0.0,1.0,52,0.00,,,-99.99,517,WeatherLink 5.7,2013-08-03 16:25:00,
2013-08-03 10:29:00,73.6,47.8,29.77,NNW,337,0.0,1.0,40,0.00,,,-99.99,730,WeatherLink 5.7,2013-08-03 16:29:00,
2013-08-03 10:30:00,67.6,48.8,29.79,North,-999,0.0,0.0,51,0.00,,,-99.99,515,WeatherLink 5.7,2013-08-03 16:30:00,
2013-08-03 10:35:00,73.9,47.4,29.76,NNW,337,0.0,1.0,39,0.00,,,-99.99,729,WeatherLink 5.7,2013-08-03 16:35:00,
2013-08-03 10:40:00,68.8,49.4,29.79,NW,315,0.0,2.0,50,0.00,,,-99.99,586,WeatherLink 5.7,2013-08-03 16:40:00,
2013-08-03 10:44:00,74.4,47.1,29.76,NW,315,0.0,2.0,38,0.00,,,-99.99,765,WeatherLink 5.7,2013-08-03 16:44:00,
2013-08-03 10:45:00,69.1,48.6,29.79,NNW,337,0.0,1.0,48,0.00,,,-99.99,586,WeatherLink 5.7,2013-08-03 16:45:00,
2013-08-03 10:50:00,69.6,48.5,29.79,NNW,337,0.0,1.0,47,0.00,,,-99.99,634,WeatherLink 5.7,2013-08-03 16:50:00,
2013-08-03 10:54:00,75.5,47.4,29.76,NW,315,0.0,3.0,37,0.00,,,-99.99,738,WeatherLink 5.7,2013-08-03 16:54:00,
2013-08-03 10:55:00,70.1,47.8,29.79,NW,315,0.0,1.0,45,0.00,,,-99.99,648,WeatherLink 5.7,2013-08-03 16:55:00,
2013-08-03 11:00:00,76.5,46.0,29.76,NW,315,0.0,2.0,34,0.00,,,-99.99,831,WeatherLink 5.7,2013-08-03 17:00:00,
2013-08-03 11:05:00,71.3,47.6,29.78,NW,315,0.0,2.0,43,0.00,,,-99.99,692,WeatherLink 5.7,2013-08-03 17:05:00,
2013-08-03 11:09:00,77.6,47.0,29.73,NW,315,0.0,3.0,34,0.00,,,-99.99,839,WeatherLink 5.7,2013-08-03 17:09:00,
2013-08-03 11:10:00,71.8,47.5,29.78,NW,315,0.0,3.0,42,0.00,,,-99.99,709,WeatherLink 5.7,2013-08-03 17:10:00,
2013-08-03 11:15:00,72.4,46.7,29.77,North,-999,0.0,0.0,40,0.00,,,-99.99,724,WeatherLink 5.7,2013-08-03 17:15:00,
2013-08-03 11:19:00,77.4,45.2,29.74,NNW,337,1.0,5.0,32,0.00,,,-99.99,880,WeatherLink 5.7,2013-08-03 17:19:00,
2013-08-03 11:20:00,73.0,47.9,29.77,NNW,337,0.0,3.0,41,0.00,,,-99.99,714,WeatherLink 5.7,2013-08-03 17:20:00,
2013-08-03 11:25:00,77.8,45.6,29.74,NW,315,0.0,1.0,32,0.00,,,-99.99,899,WeatherLink 5.7,2013-08-03 17:25:00,
2013-08-03 11:30:00,73.9,47.4,29.76,NNW,337,0.0,1.0,39,0.00,,,-99.99,729,WeatherLink 5.7,2013-08-03 17:30:00,
2013-08-03 11:34:00,78.9,44.8,29.73,NNW,337,1.0,5.0,30,0.00,,,-99.99,933,WeatherLink 5.7,2013-08-03 17:34:00,
2013-08-03 11:35:00,74.3,47.7,29.76,NW,315,0.0,4.0,39,0.00,,,-99.99,764,WeatherLink 5.7,2013-08-03 17:35:00,
2013-08-03 11:40:00,74.4,47.1,29.76,NW,315,0.0,2.0,38,0.00,,,-99.99,765,WeatherLink 5.7,2013-08-03 17:40:00,
2013-08-03 11:45:00,80.4,46.1,29.73,NNW,337,0.0,4.0,30,0.00,,,-99.99,1031,WeatherLink 5.7,2013-08-03 17:45:00,
2013-08-03 11:50:00,75.5,47.4,29.76,NW,315,0.0,3.0,37,0.00,,,-99.99,738,WeatherLink 5.7,2013-08-03 17:50:00,
2013-08-03 11:54:00,81.9,49.1,29.71,NW,315,0.0,1.0,32,0.00,,,-99.99,1042,WeatherLink 5.7,2013-08-03 17:54:00,
2013-08-03 11:55:00,76.5,46.0,29.76,NW,315,0.0,2.0,34,0.00,,,-99.99,831,WeatherLink 5.7,2013-08-03 17:55:00,
2013-08-03 12:00:00,81.9,50.8,29.71,NW,315,1.0,4.0,34,0.00,,,-99.99,1029,WeatherLink 5.7,2013-08-03 18:00:00,
2013-08-03 12:05:00,77.6,47.0,29.73,NW,315,0.0,3.0,34,0.00,,,-99.99,839,WeatherLink 5.7,2013-08-03 18:05:00,
2013-08-03 12:09:00,83.1,50.2,29.69,NW,315,0.0,4.0,32,0.00,,,-99.99,1188,WeatherLink 5.7,2013-08-03 18:09:00,
2013-08-03 12:10:00,77.3,45.9,29.73,NNW,337,1.0,6.0,33,0.00,,,-99.99,849,WeatherLink 5.7,2013-08-03 18:10:00,
2013-08-03 12:14:00,82.7,48.1,29.69,North,0,0.0,1.0,30,0.00,,,-99.99,532,WeatherLink 5.7,2013-08-03 18:14:00,
2013-08-03 12:15:00,77.4,45.2,29.74,NNW,337,1.0,5.0,32,0.00,,,-99.99,880,WeatherLink 5.7,2013-08-03 18:15:00,
2013-08-03 12:20:00,77.8,45.6,29.74,NW,315,0.0,1.0,32,0.00,,,-99.99,899,WeatherLink 5.7,2013-08-03 18:20:00,
2013-08-03 12:24:00,81.5,47.9,29.71,NNW,337,0.0,5.0,31,0.00,,,-99.99,455,WeatherLink 5.7,2013-08-03 18:24:00,
2013-08-03 12:25:00,78.3,45.2,29.74,NNW,337,1.0,7.0,31,0.00,,,-99.99,896,WeatherLink 5.7,2013-08-03 18:25:00,
2013-08-03 12:30:00,78.9,44.8,29.73,NNW,337,1.0,5.0,30,0.00,,,-99.99,933,WeatherLink 5.7,2013-08-03 18:30:00,
2013-08-03 12:35:00,81.3,48.6,29.70,ENE,67,1.0,11.0,32,0.00,,,-99.99,555,WeatherLink 5.7,2013-08-03 18:35:00,
2013-08-03 12:40:00,80.4,46.1,29.73,NNW,337,0.0,4.0,30,0.00,,,-99.99,1031,WeatherLink 5.7,2013-08-03 18:40:00,
2013-08-03 12:44:00,82.7,48.1,29.70,NNW,337,0.0,4.0,30,0.00,,,-99.99,1105,WeatherLink 5.7,2013-08-03 18:44:00,
2013-08-03 12:45:00,80.8,47.3,29.71,NNW,337,0.0,1.0,31,0.00,,,-99.99,875,WeatherLink 5.7,2013-08-03 18:45:00,
2013-08-03 12:50:00,81.9,49.1,29.71,NW,315,0.0,1.0,32,0.00,,,-99.99,1042,WeatherLink 5.7,2013-08-03 18:50:00,
2013-08-03 12:54:00,82.5,47.9,29.68,NNW,337,0.0,1.0,30,0.00,,,-99.99,434,WeatherLink 5.7,2013-08-03 18:54:00,
2013-08-03 12:55:00,81.9,50.8,29.71,NW,315,1.0,4.0,34,0.00,,,-99.99,1029,WeatherLink 5.7,2013-08-03 18:55:00,
2013-08-03 13:00:00,82.3,47.8,29.68,WNW,292,0.0,1.0,30,0.00,,,-99.99,512,WeatherLink 5.7,2013-08-03 19:00:00,
2013-08-03 13:05:00,83.1,50.2,29.69,NW,315,0.0,4.0,32,0.00,,,-99.99,1188,WeatherLink 5.7,2013-08-03 19:05:00,
2013-08-03 13:09:00,82.1,48.5,29.69,WNW,292,0.0,2.0,31,0.00,,,-99.99,385,WeatherLink 5.7,2013-08-03 19:09:00,
2013-08-03 13:10:00,82.7,48.1,29.69,North,0,0.0,1.0,30,0.00,,,-99.99,532,WeatherLink 5.7,2013-08-03 19:10:00,
2013-08-03 13:15:00,82.3,47.8,29.71,NW,315,0.0,4.0,30,0.00,,,-99.99,405,WeatherLink 5.7,2013-08-03 19:15:00,
2013-08-03 13:19:00,80.9,47.4,29.70,East,90,0.0,3.0,31,0.00,,,-99.99,380,WeatherLink 5.7,2013-08-03 19:19:00,
2013-08-03 13:20:00,81.5,47.9,29.71,NNW,337,0.0,5.0,31,0.00,,,-99.99,455,WeatherLink 5.7,2013-08-03 19:20:00,
2013-08-03 13:25:00,81.9,47.4,29.71,NNW,337,2.0,7.0,30,0.00,,,-99.99,468,WeatherLink 5.7,2013-08-03 19:25:00,
2013-08-03 13:30:00,81.3,47.8,29.70,West,270,0.0,1.0,31,0.00,,,-99.99,210,WeatherLink 5.7,2013-08-03 19:30:00,
2013-08-03 13:35:00,81.9,48.3,29.70,NW,315,1.0,5.0,31,0.00,,,-99.99,797,WeatherLink 5.7,2013-08-03 19:35:00,
2013-08-03 13:39:00,81.1,46.7,29.70,NNW,337,0.0,1.0,30,0.00,,,-99.99,200,WeatherLink 5.7,2013-08-03 19:39:00,
2013-08-03 13:40:00,82.7,48.1,29.70,NNW,337,0.0,4.0,30,0.00,,,-99.99,1105,WeatherLink 5.7,2013-08-03 19:40:00,
2013-08-03 13:45:00,82.7,48.1,29.68,North,0,0.0,1.0,30,0.00,,,-99.99,504,WeatherLink 5.7,2013-08-03 19:45:00,
2013-08-03 13:50:00,82.5,47.9,29.68,NNW,337,0.0,1.0,30,0.00,,,-99.99,434,WeatherLink 5.7,2013-08-03 19:50:00,
2013-08-03 13:55:00,82.3,47.8,29.68,WNW,292,0.0,1.0,30,0.00,,,-99.99,512,WeatherLink 5.7,2013-08-03 19:55:00,
2013-08-03 14:00:00,82.1,47.6,29.69,NW,315,0.0,1.0,30,0.00,,,-99.99,446,WeatherLink 5.7,2013-08-03 20:00:00,
2013-08-03 14:05:00,82.1,48.5,29.69,WNW,292,0.0,2.0,31,0.00,,,-99.99,385,WeatherLink 5.7,2013-08-03 20:05:00,
2013-08-03 14:10:00,81.7,47.2,29.69,NNW,337,1.0,8.0,30,0.00,,,-99.99,388,WeatherLink 5.7,2013-08-03 20:10:00,
2013-08-03 14:15:00,80.9,47.4,29.70,East,90,0.0,3.0,31,0.00,,,-99.99,380,WeatherLink 5.7,2013-08-03 20:15:00,
2013-08-03 14:20:00,81.1,46.7,29.70,NW,315,0.0,2.0,30,0.00,,,-99.99,289,WeatherLink 5.7,2013-08-03 20:20:00,
2013-08-03 14:31:00,81.3,47.8,29.70,West,270,0.0,1.0,31,0.00,,,-99.99,210,WeatherLink 5.7,2013-08-03 20:31:00,
2013-08-03 14:40:00,80.2,49.3,29.69,NNW,337,0.0,4.0,34,0.00,,,-99.99,133,WeatherLink 5.7,2013-08-03 20:40:00,
2013-08-03 14:50:00,80.0,49.9,29.69,East,90,0.0,1.0,35,0.00,,,-99.99,116,WeatherLink 5.7,2013-08-03 20:50:00,
2013-08-03 14:55:00,79.8,48.9,29.69,NW,315,0.0,4.0,34,0.00,,,-99.99,118,WeatherLink 5.7,2013-08-03 20:55:00,
2013-08-03 15:00:00,79.8,48.9,29.69,NNW,337,2.0,10.0,34,0.00,,,-99.99,130,WeatherLink 5.7,2013-08-03 21:00:00,
2013-08-03 15:10:00,80.0,49.1,29.69,NW,315,0.0,3.0,34,0.00,,,-99.99,152,WeatherLink 5.7,2013-08-03 21:10:00,
2013-08-03 15:20:00,80.0,49.1,29.70,NNW,337,0.0,5.0,34,0.00,,,-99.99,220,WeatherLink 5.7,2013-08-03 21:20:00,
2013-08-03 15:30:00,80.2,50.1,29.70,SSE,157,0.0,1.0,35,0.00,,,-99.99,279,WeatherLink 5.7,2013-08-03 21:30:00,
2013-08-03 15:40:00,80.4,50.2,29.70,SSW,202,0.0,2.0,35,0.00,,,-99.99,312,WeatherLink 5.7,2013-08-03 21:40:00,
2013-08-03 15:45:00,80.6,48.0,29.70,SSE,157,0.0,1.0,32,0.00,,,-99.99,304,WeatherLink 5.7,2013-08-03 21:45:00,
2013-08-03 15:55:00,80.9,47.4,29.69,WSW,247,0.0,1.0,31,0.00,,,-99.99,362,WeatherLink 5.7,2013-08-03 21:55:00,
2013-08-03 16:00:00,81.1,48.4,29.69,SE,135,0.0,1.0,32,0.00,,,-99.99,442,WeatherLink 5.7,2013-08-03 22:00:00,
2013-08-03 16:10:00,81.5,51.2,29.68,SE,135,0.0,1.0,35,0.00,,,-99.99,501,WeatherLink 5.7,2013-08-03 22:10:00,
2013-08-03 16:15:00,81.7,49.8,29.68,North,-999,0.0,0.0,33,0.00,,,-99.99,434,WeatherLink 5.7,2013-08-03 22:15:00,
2013-08-03 16:25:00,82.1,48.5,29.69,SE,135,0.0,1.0,31,0.00,,,-99.99,434,WeatherLink 5.7,2013-08-03 22:25:00,
2013-08-03 16:35:00,82.5,47.9,29.69,North,-999,0.0,0.0,30,0.00,,,-99.99,357,WeatherLink 5.7,2013-08-03 22:35:00,
2013-08-03 16:45:00,82.5,47.0,29.69,North,-999,0.0,0.0,29,0.00,,,-99.99,320,WeatherLink 5.7,2013-08-03 22:45:00,
2013-08-03 16:50:00,82.9,49.2,29.68,NW,315,0.0,1.0,31,0.00,,,-99.99,299,WeatherLink 5.7,2013-08-03 22:50:00,
2013-08-03 17:00:00,82.9,46.4,29.68,North,-999,0.0,0.0,28,0.00,,,-99.99,240,WeatherLink 5.7,2013-08-03 23:00:00,
2013-08-03 17:10:00,83.1,47.5,29.68,North,-999,0.0,0.0,29,0.00,,,-99.99,438,WeatherLink 5.7,2013-08-03 23:10:00,
2013-08-03 17:20:00,83.8,45.3,29.68,NNW,337,0.0,6.0,26,0.00,,,-99.99,275,WeatherLink 5.7,2013-08-03 23:20:00,
2013-08-03 17:30:00,83.1,43.6,29.68,NNW,337,0.0,1.0,25,0.00,,,-99.99,332,WeatherLink 5.7,2013-08-03 23:30:00,
2013-08-03 17:35:00,83.5,47.9,29.68,NNW,337,0.0,1.0,29,0.00,,,-99.99,308,WeatherLink 5.7,2013-08-03 23:35:00,
2013-08-03 17:45:00,84.4,44.7,29.68,East,90,1.0,4.0,25,0.00,,,-99.99,509,WeatherLink 5.7,2013-08-03 23:45:00,
2013-08-03 17:50:00,84.2,45.6,29.68,East,90,0.0,1.0,26,0.00,,,-99.99,475,WeatherLink 5.7,2013-08-03 23:50:00,
2013-08-03 18:00:00,85.0,47.3,29.68,North,-999,0.0,0.0,27,0.00,,,-99.99,319,WeatherLink 5.7,2013-08-04 00:00:00,
2013-08-03 18:10:00,84.4,47.7,29.67,SW,225,0.0,1.0,28,0.00,,,-99.99,309,WeatherLink 5.7,2013-08-04 00:10:00,
2013-08-03 18:20:00,84.0,47.4,29.67,South,180,0.0,3.0,28,0.00,,,-99.99,83,WeatherLink 5.7,2013-08-04 00:20:00,
2013-08-03 18:30:00,83.8,46.2,29.67,NNW,337,1.0,5.0,27,0.00,,,-99.99,82,WeatherLink 5.7,2013-08-04 00:30:00,
2013-08-03 18:40:00,83.7,46.2,29.67,SSE,157,0.0,5.0,27,0.00,,,-99.99,92,WeatherLink 5.7,2013-08-04 00:40:00,
2013-08-03 18:50:00,83.7,46.2,29.68,NNW,337,0.0,2.0,27,0.00,,,-99.99,103,WeatherLink 5.7,2013-08-04 00:50:00,
2013-08-03 18:55:00,83.5,47.9,29.68,North,-999,0.0,0.0,29,0.00,,,-99.99,97,WeatherLink 5.7,2013-08-04 00:55:00,
2013-08-03 19:00:00,83.3,47.7,29.68,North,-999,0.0,0.0,29,0.00,,,-99.99,84,WeatherLink 5.7,2013-08-04 01:00:00,
2013-08-03 19:10:00,81.9,46.5,29.67,SSE,157,0.0,3.0,29,0.00,,,-99.99,47,WeatherLink 5.7,2013-08-04 01:10:00,
2013-08-03 19:20:00,80.8,45.6,29.68,East,90,3.0,14.0,29,0.00,,,-99.99,45,WeatherLink 5.7,2013-08-04 01:20:00,
2013-08-03 19:30:00,79.8,45.6,29.68,ESE,112,4.0,13.0,30,0.00,,,-99.99,40,WeatherLink 5.7,2013-08-04 01:30:00,
2013-08-03 19:35:00,79.8,45.6,29.69,East,90,4.0,11.0,30,0.00,,,-99.99,27,WeatherLink 5.7,2013-08-04 01:35:00,
2013-08-03 19:45:00,80.0,45.8,29.69,East,90,2.0,11.0,30,0.00,,,-99.99,13,WeatherLink 5.7,2013-08-04 01:45:00,
2013-08-03 19:55:00,79.3,47.7,29.71,WSW,247,1.0,5.0,33,0.00,,,-99.99,7,WeatherLink 5.7,2013-08-04 01:55:00,
2013-08-03 20:00:00,77.8,47.9,29.71,NNW,337,3.0,15.0,35,0.00,,,-99.99,5,WeatherLink 5.7,2013-08-04 02:00:00,
2013-08-03 20:10:00,76.2,48.0,29.72,WNW,292,3.0,17.0,37,0.00,,,-99.99,1,WeatherLink 5.7,2013-08-04 02:10:00,
2013-08-03 20:15:00,75.3,47.2,29.72,NNW,337,7.0,17.0,37,0.00,,,-99.99,0,WeatherLink 5.7,2013-08-04 02:15:00,
2013-08-03 20:25:00,73.9,46.0,29.76,NNW,337,1.0,6.0,37,0.00,,,-99.99,2,WeatherLink 5.7,2013-08-04 02:25:00,
2013-08-03 20:30:00,73.6,47.1,29.76,NW,315,0.0,5.0,39,0.00,,,-99.99,0,WeatherLink 5.7,2013-08-04 02:30:00,
2013-08-03 20:40:00,70.6,54.1,29.78,NNW,337,0.0,1.0,56,0.03,,,-99.99,0,WeatherLink 5.7,2013-08-04 02:40:00,
2013-08-03 20:45:00,67.8,52.9,29.78,NW,315,4.0,11.0,59,0.03,,,-99.99,0,WeatherLink 5.7,2013-08-04 02:45:00,
2013-08-03 20:55:00,65.5,52.6,29.80,NW,315,1.0,5.0,63,0.03,,,-99.99,0,WeatherLink 5.7,2013-08-04 02:55:00,
2013-08-03 21:00:00,65.7,53.2,29.80,NNW,337,0.0,1.0,64,0.03,,,-99.99,0,WeatherLink 5.7,2013-08-04 03:00:00,
2013-08-03 21:10:00,64.9,53.3,29.82,East,90,0.0,2.0,66,0.03,,,-99.99,0,WeatherLink 5.7,2013-08-04 03:10:00,
2013-08-03 21:15:00,64.4,53.6,29.82,East,90,0.0,2.0,68,0.03,,,-99.99,0,WeatherLink 5.7,2013-08-04 03:15:00,
2013-08-03 21:25:00,64.2,52.2,29.79,SW,225,1.0,4.0,65,0.03,,,-99.99,0,WeatherLink 5.7,2013-08-04 03:25:00,
2013-08-03 21:30:00,64.5,52.5,29.79,East,90,0.0,2.0,65,0.03,,,-99.99,0,WeatherLink 5.7,2013-08-04 03:30:00,
2013-08-03 21:35:00,65.0,52.1,29.79,East,90,0.0,1.0,63,0.03,,,-99.99,0,WeatherLink 5.7,2013-08-04 03:35:00,
2013-08-03 21:45:00,65.0,52.9,29.79,North,-999,0.0,0.0,65,0.00,,,-99.99,0,WeatherLink 5.7,2013-08-04 03:45:00,
2013-08-03 21:55:00,64.5,53.7,29.79,North,-999,0.0,0.0,68,0.00,,,-99.99,0,WeatherLink 5.7,2013-08-04 03:55:00,
2013-08-03 22:00:00,64.0,53.2,29.79,North,-999,0.0,0.0,68,0.00,,,-99.99,0,WeatherLink 5.7,2013-08-04 04:00:00,
2013-08-03 22:10:00,63.4,53.4,29.82,North,-999,0.0,0.0,70,0.00,,,-99.99,0,WeatherLink 5.7,2013-08-04 04:10:00,
2013-08-03 22:19:00,62.8,52.9,29.78,North,-999,0.0,0.0,70,0.00,,,-99.99,0,WeatherLink 5.7,2013-08-04 04:19:00,
2013-08-03 22:25:00,62.6,53.1,29.78,North,-999,0.0,0.0,71,0.00,,,-99.99,0,WeatherLink 5.7,2013-08-04 04:25:00,
2013-08-03 22:30:00,62.4,52.5,29.78,North,-999,0.0,0.0,70,0.00,,,-99.99,0,WeatherLink 5.7,2013-08-04 04:30:00,
2013-08-03 22:40:00,62.3,53.5,29.79,North,-999,0.0,0.0,73,0.00,,,-99.99,0,WeatherLink 5.7,2013-08-04 04:40:00,
2013-08-03 22:50:00,61.5,53.1,29.79,North,-999,0.0,0.0,74,0.00,,,-99.99,0,WeatherLink 5.7,2013-08-04 04:50:00,
2013-08-03 23:00:00,61.3,52.2,29.79,North,-999,0.0,0.0,72,0.00,,,-99.99,0,WeatherLink 5.7,2013-08-04 05:00:00,
2013-08-03 23:10:00,61.2,52.8,29.79,North,-999,0.0,0.0,74,0.00,,,-99.99,0,WeatherLink 5.7,2013-08-04 05:10:00,
2013-08-03 23:15:00,61.0,52.7,29.79,North,-999,0.0,0.0,74,0.00,,,-99.99,0,WeatherLink 5.7,2013-08-04 05:15:00,
2013-08-03 23:25:00,60.6,51.5,29.76,ESE,112,0.0,1.0,72,0.00,,,-99.99,0,WeatherLink 5.7,2013-08-04 05:25:00,
2013-08-03 23:30:00,61.2,51.3,29.76,ESE,112,0.0,3.0,70,0.00,,,-99.99,0,WeatherLink 5.7,2013-08-04 05:30:00,
2013-08-03 23:40:00,61.8,50.7,29.77,ESE,112,0.0,1.0,67,0.00,,,-99.99,0,WeatherLink 5.7,2013-08-04 05:40:00,
2013-08-03 23:50:00,61.8,50.3,29.77,ESE,112,0.0,2.0,66,0.00,,,-99.99,0,WeatherLink 5.7,2013-08-04 05:50:00,